Time;durP1;ratioP1;P1;durP2;ratioP2;P2;SDS_P1;SDS_P2;PMS_P1;PMS_P2;Temp;Humidity;BMP_temperature;BMP_pressure;BME280_temperature;BME280_humidity;BME280_pressure;Samples;Min_cycle;Max_cycle;Signal;HPM_P1;HPM_P2
2021/03/01 00:01:27;;;;;;;9.70;8.57;;;;;;;;;;5055163;28;20255;-80
2021/03/01 00:03:53;;;;;;;8.47;7.60;;;;;;;;;;5046732;28;20188;-80
2021/03/01 00:06:19;;;;;;;9.67;8.40;;;;;;;;;;5055575;28;20208;-80
2021/03/01 00:08:45;;;;;;;8.67;7.30;;;;;;;;;;5054208;28;20735;-80
2021/03/01 00:11:11;;;;;;;10.37;8.13;;;;;;;;;;5054991;28;20192;-80
2021/03/01 00:13:38;;;;;;;8.50;7.60;;;;;;;;;;5054303;28;20216;-79
2021/03/01 00:16:04;;;;;;;7.83;6.97;;;;;;;;;;5054767;28;20209;-79
2021/03/01 00:18:30;;;;;;;9.67;7.70;;;;;;;;;;5054571;28;20189;-79
2021/03/01 00:20:56;;;;;;;8.10;7.07;;;;;;;;;;5055581;28;20188;-78
2021/03/01 00:23:22;;;;;;;10.17;7.57;;;;;;;;;;5053983;28;20275;-78
2021/03/01 00:25:48;;;;;;;8.67;7.77;;;;;;;;;;5054861;28;20651;-79
2021/03/01 00:28:15;;;;;;;9.87;7.80;;;;;;;;;;5056426;28;20266;-79
2021/03/01 00:30:41;;;;;;;8.63;7.53;;;;;;;;;;5059180;28;20220;-79
2021/03/01 00:33:07;;;;;;;8.30;7.40;;;;;;;;;;5057979;28;20185;-79
2021/03/01 00:35:34;;;;;;;8.03;7.00;;;;;;;;;;5058285;28;20251;-79
2021/03/01 00:38:00;;;;;;;9.50;7.87;;;;;;;;;;5060711;28;20184;-78
2021/03/01 00:40:26;;;;;;;9.67;7.43;;;;;;;;;;5057801;28;20191;-79
2021/03/01 00:42:52;;;;;;;8.00;7.17;;;;;;;;;;5058734;28;20184;-79
2021/03/01 00:45:18;;;;;;;9.23;7.50;;;;;;;;;;5059573;28;20290;-78
2021/03/01 00:47:45;;;;;;;9.03;8.13;;;;;;;;;;5060128;28;20179;-79
2021/03/01 00:50:13;;;;;;;9.33;8.13;;;;;;;;;;5057563;28;20185;-79
2021/03/01 00:52:39;;;;;;;9.60;7.97;;;;;;;;;;5044266;28;20172;-79
2021/03/01 00:55:06;;;;;;;8.77;7.90;;;;;;;;;;5058566;28;20224;-79
2021/03/01 00:57:32;;;;;;;8.47;6.70;;;;;;;;;;5057897;28;20209;-79
2021/03/01 00:59:58;;;;;;;9.97;7.07;;;;;;;;;;5056988;28;20192;-79
2021/03/01 01:02:24;;;;;;;8.07;7.20;;;;;;;;;;5058191;28;20199;-79
2021/03/01 01:04:51;;;;;;;9.47;7.50;;;;;;;;;;5056797;28;20209;-79
2021/03/01 01:07:17;;;;;;;8.10;7.30;;;;;;;;;;5058048;28;20662;-79
2021/03/01 01:09:43;;;;;;;8.50;7.67;;;;;;;;;;5058071;28;20196;-79
2021/03/01 01:12:08;;;;;;;9.80;7.07;;;;;;;;;;5058436;28;20257;-79
2021/03/01 01:14:36;;;;;;;8.70;7.63;;;;;;;;;;5058280;28;20279;-78
2021/03/01 01:17:03;;;;;;;7.60;6.80;;;;;;;;;;5056358;28;20191;-79
2021/03/01 01:19:29;;;;;;;8.73;7.10;;;;;;;;;;5058531;28;20185;-78
2021/03/01 01:21:55;;;;;;;9.00;7.47;;;;;;;;;;5056669;28;20194;-78
2021/03/01 01:24:21;;;;;;;7.57;6.77;;;;;;;;;;5056406;28;20207;-79
2021/03/01 01:26:47;;;;;;;9.43;7.00;;;;;;;;;;5057858;28;20273;-79
2021/03/01 01:29:13;;;;;;;9.20;7.73;;;;;;;;;;5057497;28;20179;-78
2021/03/01 01:31:39;;;;;;;9.40;8.27;;;;;;;;;;5057729;28;20190;-79
2021/03/01 01:34:06;;;;;;;8.27;7.47;;;;;;;;;;5056841;28;20182;-78
2021/03/01 01:36:32;;;;;;;10.37;8.43;;;;;;;;;;5057793;28;20191;-78
2021/03/01 01:38:58;;;;;;;9.30;7.23;;;;;;;;;;5056318;28;20184;-79
2021/03/01 01:41:24;;;;;;;9.03;8.13;;;;;;;;;;5056273;28;20237;-78
2021/03/01 01:43:50;;;;;;;7.70;7.00;;;;;;;;;;5056692;28;20198;-78
2021/03/01 01:46:17;;;;;;;9.47;7.83;;;;;;;;;;5056545;28;20211;-79
2021/03/01 01:48:43;;;;;;;8.17;7.37;;;;;;;;;;5056273;28;20257;-79
2021/03/01 01:51:09;;;;;;;9.13;7.83;;;;;;;;;;5057403;28;20260;-79
2021/03/01 01:53:35;;;;;;;8.70;7.80;;;;;;;;;;5058110;28;20199;-78
2021/03/01 01:56:01;;;;;;;8.63;7.63;;;;;;;;;;5056869;28;20210;-79
2021/03/01 01:58:27;;;;;;;8.00;7.20;;;;;;;;;;5056998;28;20182;-79
2021/03/01 02:00:54;;;;;;;8.47;7.53;;;;;;;;;;5056941;28;20185;-79
2021/03/01 02:03:29;;;;;;;9.13;7.57;;;;;;;;;;5058168;28;20182;-78
2021/03/01 02:05:56;;;;;;;8.80;7.90;;;;;;;;;;5057237;28;20629;-79
2021/03/01 02:08:28;;;;;;;9.87;7.20;;;;;;;;;;5054747;28;20182;-79
2021/03/01 02:10:58;;;;;;;10.43;7.60;;;;;;;;;;5046252;28;20243;-79
2021/03/01 02:13:31;;;;;;;8.23;7.43;;;;;;;;;;5053796;28;20204;-79
2021/03/01 02:15:57;;;;;;;7.77;7.07;;;;;;;;;;5057178;28;20702;-80
2021/03/01 02:18:23;;;;;;;10.97;8.17;;;;;;;;;;5056751;28;20192;-80
2021/03/01 02:20:49;;;;;;;10.07;7.60;;;;;;;;;;5057399;28;20195;-79
2021/03/01 02:23:17;;;;;;;10.23;7.27;;;;;;;;;;5057377;28;20188;-79
2021/03/01 02:25:57;;;;;;;8.07;6.73;;;;;;;;;;5056042;28;20732;-79
2021/03/01 02:28:27;;;;;;;9.23;8.07;;;;;;;;;;5056582;28;20182;-79
2021/03/01 02:30:56;;;;;;;9.20;7.23;;;;;;;;;;5057134;28;20291;-79
2021/03/01 02:33:26;;;;;;;9.23;7.07;;;;;;;;;;5058275;28;20181;-79
2021/03/01 02:36:00;;;;;;;9.70;7.97;;;;;;;;;;5058279;28;20202;-79
2021/03/01 02:38:28;;;;;;;8.10;6.83;;;;;;;;;;5058483;28;20406;-79
2021/03/01 02:40:55;;;;;;;8.53;7.27;;;;;;;;;;5054399;28;20182;-79
2021/03/01 02:43:22;;;;;;;8.20;7.30;;;;;;;;;;5055802;28;20562;-78
2021/03/01 02:45:49;;;;;;;10.10;7.83;;;;;;;;;;5054543;28;20870;-78
2021/03/01 02:48:16;;;;;;;9.53;7.63;;;;;;;;;;5056252;28;20603;-79
2021/03/01 02:50:43;;;;;;;9.53;7.23;;;;;;;;;;5055650;28;20186;-78
2021/03/01 02:53:09;;;;;;;9.97;7.50;;;;;;;;;;5053760;28;20655;-78
2021/03/01 02:55:35;;;;;;;8.40;7.30;;;;;;;;;;5056293;28;20205;-78
2021/03/01 02:58:02;;;;;;;8.40;7.57;;;;;;;;;;5056645;28;20193;-79
2021/03/01 03:00:28;;;;;;;9.73;7.70;;;;;;;;;;5054562;28;20651;-79
2021/03/01 03:02:55;;;;;;;8.00;7.20;;;;;;;;;;5043171;28;20184;-79
2021/03/01 03:05:22;;;;;;;9.03;7.27;;;;;;;;;;5036525;28;20210;-78
2021/03/01 03:07:49;;;;;;;8.70;7.43;;;;;;;;;;5039558;28;20188;-78
2021/03/01 03:10:16;;;;;;;8.53;7.40;;;;;;;;;;5060201;28;20170;-79
2021/03/01 03:12:43;;;;;;;10.00;7.90;;;;;;;;;;5060201;28;20209;-80
2021/03/01 03:15:10;;;;;;;7.63;6.90;;;;;;;;;;5056509;28;20210;-79
2021/03/01 03:17:38;;;;;;;9.70;7.63;;;;;;;;;;5056258;28;20219;-79
2021/03/01 03:20:05;;;;;;;9.40;8.13;;;;;;;;;;5036178;28;20240;-79
2021/03/01 03:22:31;;;;;;;11.03;7.87;;;;;;;;;;5029981;28;20912;-78
2021/03/01 03:24:57;;;;;;;8.27;7.13;;;;;;;;;;5047604;28;20220;-79
2021/03/01 03:27:23;;;;;;;11.23;8.23;;;;;;;;;;5053536;28;20208;-79
2021/03/01 03:29:49;;;;;;;9.43;7.67;;;;;;;;;;5055180;28;20673;-79
2021/03/01 03:32:15;;;;;;;8.60;7.60;;;;;;;;;;5054199;28;20181;-79
2021/03/01 03:34:42;;;;;;;8.03;7.23;;;;;;;;;;5053032;28;20231;-79
2021/03/01 03:37:10;;;;;;;8.13;7.30;;;;;;;;;;5053614;28;20263;-78
2021/03/01 03:39:39;;;;;;;9.70;7.47;;;;;;;;;;5052455;28;20213;-80
2021/03/01 03:42:06;;;;;;;7.90;7.03;;;;;;;;;;5054525;28;20256;-79
2021/03/01 03:44:33;;;;;;;10.20;6.77;;;;;;;;;;5053966;28;20206;-78
2021/03/01 03:46:59;;;;;;;8.03;6.70;;;;;;;;;;5054231;28;20186;-79
2021/03/01 03:49:28;;;;;;;8.87;7.37;;;;;;;;;;5054207;28;20205;-78
2021/03/01 03:51:57;;;;;;;8.30;7.23;;;;;;;;;;5053787;28;21007;-79
2021/03/01 03:54:24;;;;;;;9.83;7.40;;;;;;;;;;5054089;28;20225;-79
2021/03/01 03:56:54;;;;;;;8.57;7.47;;;;;;;;;;5054394;28;20181;-79
2021/03/01 03:59:20;;;;;;;10.07;7.67;;;;;;;;;;5055357;28;20186;-78
2021/03/01 04:01:49;;;;;;;9.53;7.33;;;;;;;;;;5055842;28;20173;-78
2021/03/01 04:04:17;;;;;;;9.77;7.90;;;;;;;;;;5054452;28;20206;-79
2021/03/01 04:06:43;;;;;;;10.27;7.20;;;;;;;;;;5051962;28;20202;-79
2021/03/01 04:09:11;;;;;;;11.17;8.13;;;;;;;;;;5053596;28;20190;-78
2021/03/01 04:11:39;;;;;;;8.33;7.00;;;;;;;;;;5054091;28;20182;-78
2021/03/01 04:14:06;;;;;;;11.57;8.33;;;;;;;;;;5054219;28;20190;-78
2021/03/01 04:16:33;;;;;;;9.43;7.90;;;;;;;;;;5054577;28;20200;-78
2021/03/01 04:19:02;;;;;;;9.07;7.07;;;;;;;;;;5047966;28;20182;-78
2021/03/01 04:21:28;;;;;;;9.53;7.60;;;;;;;;;;5054882;28;20196;-78
2021/03/01 04:23:55;;;;;;;8.67;7.57;;;;;;;;;;5053458;28;20186;-79
2021/03/01 04:26:22;;;;;;;10.50;8.07;;;;;;;;;;5053596;28;20730;-78
2021/03/01 04:28:48;;;;;;;8.37;7.47;;;;;;;;;;5053472;28;20190;-78
2021/03/01 04:31:14;;;;;;;9.40;7.23;;;;;;;;;;5054409;28;20182;-78
2021/03/01 04:33:43;;;;;;;8.97;7.20;;;;;;;;;;5053157;28;20611;-78
2021/03/01 04:36:09;;;;;;;8.70;7.80;;;;;;;;;;5053559;28;20263;-78
2021/03/01 04:38:36;;;;;;;12.17;7.83;;;;;;;;;;5052871;28;20190;-78
2021/03/01 04:41:02;;;;;;;9.07;7.80;;;;;;;;;;5051604;28;20174;-78
2021/03/01 04:43:29;;;;;;;8.97;7.37;;;;;;;;;;5053202;28;20190;-78
2021/03/01 04:45:55;;;;;;;9.07;7.67;;;;;;;;;;5053067;28;20213;-78
2021/03/01 04:48:22;;;;;;;9.00;7.57;;;;;;;;;;5049990;28;20182;-78
2021/03/01 04:50:49;;;;;;;13.97;7.70;;;;;;;;;;5040122;28;20181;-79
2021/03/01 04:53:15;;;;;;;11.27;7.63;;;;;;;;;;5053200;28;20178;-78
2021/03/01 04:55:41;;;;;;;10.67;8.13;;;;;;;;;;5053046;28;20206;-78
2021/03/01 04:58:08;;;;;;;11.17;7.63;;;;;;;;;;5052458;28;20189;-78
2021/03/01 05:00:35;;;;;;;10.33;7.80;;;;;;;;;;5046420;28;20231;-78
2021/03/01 05:03:01;;;;;;;11.70;7.90;;;;;;;;;;5034056;28;20183;-79
2021/03/01 05:05:28;;;;;;;10.80;7.30;;;;;;;;;;5035212;28;20222;-78
2021/03/01 05:07:58;;;;;;;9.53;7.43;;;;;;;;;;5044557;28;20181;-79
2021/03/01 05:10:25;;;;;;;11.67;8.43;;;;;;;;;;5051770;28;20256;-79
2021/03/01 05:12:51;;;;;;;10.97;9.13;;;;;;;;;;5054794;28;20185;-78
2021/03/01 05:15:18;;;;;;;12.63;7.90;;;;;;;;;;5055926;28;20201;-79
2021/03/01 05:17:45;;;;;;;9.23;7.47;;;;;;;;;;5057327;28;20197;-78
2021/03/01 05:20:11;;;;;;;10.87;8.00;;;;;;;;;;5057595;28;20189;-79
2021/03/01 05:22:38;;;;;;;10.50;7.73;;;;;;;;;;5057627;28;20212;-78
2021/03/01 05:25:04;;;;;;;11.07;8.20;;;;;;;;;;5038649;28;20218;-80
2021/03/01 05:27:33;;;;;;;13.60;9.17;;;;;;;;;;5029641;28;20178;-78
2021/03/01 05:29:59;;;;;;;12.57;8.77;;;;;;;;;;5057642;28;20180;-78
2021/03/01 05:32:25;;;;;;;11.30;7.97;;;;;;;;;;5058471;28;20919;-78
2021/03/01 05:34:52;;;;;;;11.53;7.60;;;;;;;;;;5058480;28;20250;-78
2021/03/01 05:37:18;;;;;;;8.97;7.30;;;;;;;;;;5038888;28;20316;-78
2021/03/01 05:39:44;;;;;;;12.33;8.20;;;;;;;;;;5036938;28;20613;-78
2021/03/01 05:42:13;;;;;;;14.23;8.57;;;;;;;;;;5057737;28;20178;-78
2021/03/01 05:44:41;;;;;;;11.50;7.90;;;;;;;;;;5056611;28;20209;-78
2021/03/01 05:47:09;;;;;;;11.47;8.20;;;;;;;;;;5053299;28;20181;-78
2021/03/01 05:49:38;;;;;;;10.80;7.53;;;;;;;;;;5039709;28;20269;-78
2021/03/01 05:52:05;;;;;;;14.30;7.93;;;;;;;;;;5038249;28;20266;-78
2021/03/01 05:54:33;;;;;;;10.80;7.93;;;;;;;;;;5036164;28;20225;-78
2021/03/01 05:56:59;;;;;;;11.20;8.20;;;;;;;;;;5038671;28;20604;-78
2021/03/01 05:59:26;;;;;;;14.13;7.70;;;;;;;;;;5034117;28;20954;-78
2021/03/01 06:01:52;;;;;;;10.73;8.00;;;;;;;;;;5038457;28;20182;-78
2021/03/01 06:04:18;;;;;;;10.00;8.67;;;;;;;;;;5037588;28;20757;-78
2021/03/01 06:06:44;;;;;;;12.40;8.73;;;;;;;;;;5037503;28;20293;-78
2021/03/01 06:09:10;;;;;;;14.30;8.53;;;;;;;;;;5033503;28;20178;-78
2021/03/01 06:11:36;;;;;;;12.40;8.10;;;;;;;;;;5039317;28;20182;-78
2021/03/01 06:14:06;;;;;;;13.63;9.33;;;;;;;;;;5056244;28;20320;-78
2021/03/01 06:16:32;;;;;;;13.33;9.33;;;;;;;;;;5055965;28;20211;-78
2021/03/01 06:18:58;;;;;;;17.00;8.10;;;;;;;;;;5056036;28;20212;-78
2021/03/01 06:21:25;;;;;;;13.30;8.53;;;;;;;;;;5042571;28;20178;-78
2021/03/01 06:23:53;;;;;;;11.53;8.30;;;;;;;;;;5041714;28;20594;-77
2021/03/01 06:26:23;;;;;;;12.60;8.13;;;;;;;;;;5046292;28;20198;-78
2021/03/01 06:28:50;;;;;;;9.93;7.63;;;;;;;;;;5052313;28;20245;-78
2021/03/01 06:31:32;;;;;;;10.93;8.37;;;;;;;;;;5056227;28;20231;-78
2021/03/01 06:34:17;;;;;;;12.37;7.47;;;;;;;;;;5051986;28;20181;-78
2021/03/01 06:36:53;;;;;;;16.47;8.20;;;;;;;;;;5037844;28;20186;-79
2021/03/01 06:39:26;;;;;;;12.10;8.67;;;;;;;;;;5036305;28;20171;-79
2021/03/01 06:41:53;;;;;;;13.23;8.80;;;;;;;;;;5037228;28;20182;-79
2021/03/01 06:44:19;;;;;;;13.37;9.03;;;;;;;;;;5037363;28;20218;-78
2021/03/01 06:46:52;;;;;;;18.50;8.43;;;;;;;;;;5037344;28;20228;-79
2021/03/01 06:49:19;;;;;;;14.10;7.97;;;;;;;;;;5035735;28;20543;-79
2021/03/01 06:51:45;;;;;;;13.50;8.77;;;;;;;;;;5031700;28;20180;-78
2021/03/01 06:54:11;;;;;;;14.47;8.37;;;;;;;;;;5052683;28;20205;-78
2021/03/01 06:56:44;;;;;;;13.77;8.90;;;;;;;;;;5057368;28;20725;-78
2021/03/01 06:59:14;;;;;;;10.97;8.70;;;;;;;;;;5058127;28;20178;-79
2021/03/01 07:01:50;;;;;;;11.63;8.20;;;;;;;;;;5054919;28;20178;-79
2021/03/01 07:04:34;;;;;;;12.97;8.90;;;;;;;;;;5040806;28;20241;-79
2021/03/01 07:07:02;;;;;;;12.17;8.83;;;;;;;;;;5036964;28;20285;-79
2021/03/01 07:09:35;;;;;;;17.63;9.37;;;;;;;;;;5048676;28;20188;-79
2021/03/01 07:12:02;;;;;;;17.33;9.07;;;;;;;;;;5042549;28;20182;-78
2021/03/01 07:14:29;;;;;;;14.20;9.40;;;;;;;;;;5033304;28;20194;-79
2021/03/01 07:16:57;;;;;;;13.37;9.53;;;;;;;;;;5049096;28;20182;-79
2021/03/01 07:19:26;;;;;;;15.83;10.83;;;;;;;;;;5044594;28;20204;-79
2021/03/01 07:21:54;;;;;;;14.70;10.17;;;;;;;;;;5056120;28;20182;-80
2021/03/01 07:24:21;;;;;;;15.43;10.33;;;;;;;;;;5042060;28;20822;-79
2021/03/01 07:26:48;;;;;;;16.87;10.73;;;;;;;;;;5056277;28;20566;-79
2021/03/01 07:29:24;;;;;;;16.70;11.33;;;;;;;;;;5056299;28;20170;-78
2021/03/01 07:32:04;;;;;;;14.80;10.47;;;;;;;;;;5055951;28;20666;-79
2021/03/01 07:34:30;;;;;;;14.77;11.50;;;;;;;;;;5041891;28;20205;-79
2021/03/01 07:36:58;;;;;;;17.93;12.53;;;;;;;;;;5052268;28;20190;-79
2021/03/01 07:39:24;;;;;;;17.23;12.03;;;;;;;;;;5034064;28;20229;-78
2021/03/01 07:41:51;;;;;;;20.23;13.13;;;;;;;;;;5048349;28;20260;-79
2021/03/01 07:44:22;;;;;;;18.90;13.30;;;;;;;;;;5056264;28;20680;-79
2021/03/01 07:46:49;;;;;;;21.80;14.13;;;;;;;;;;5056457;28;20205;-79
2021/03/01 07:49:34;;;;;;;16.20;13.27;;;;;;;;;;5054410;28;20188;-79
2021/03/01 07:52:01;;;;;;;18.80;14.03;;;;;;;;;;5046000;28;20269;-77
2021/03/01 07:54:56;;;;;;;27.60;15.13;;;;;;;;;;5056078;28;20202;-78
2021/03/01 07:57:25;;;;;;;21.53;14.87;;;;;;;;;;5030510;28;20198;-78
2021/03/01 07:59:51;;;;;;;19.23;15.77;;;;;;;;;;5051484;28;20743;-80
2021/03/01 08:02:21;;;;;;;20.30;14.83;;;;;;;;;;5048450;28;20193;-77
2021/03/01 08:04:47;;;;;;;19.50;14.70;;;;;;;;;;5050603;28;20213;-78
2021/03/01 08:07:13;;;;;;;19.93;15.40;;;;;;;;;;5055557;28;20162;-79
2021/03/01 08:09:39;;;;;;;19.73;14.80;;;;;;;;;;5055580;28;20189;-79
2021/03/01 08:12:06;;;;;;;18.00;15.30;;;;;;;;;;5038764;28;20178;-78
2021/03/01 08:14:51;;;;;;;20.10;16.33;;;;;;;;;;5035248;28;20207;-79
2021/03/01 08:17:37;;;;;;;20.67;16.27;;;;;;;;;;5036243;28;20184;-78
2021/03/01 08:20:15;;;;;;;21.87;16.80;;;;;;;;;;5033390;28;20273;-80
2021/03/01 08:23:01;;;;;;;19.37;15.10;;;;;;;;;;5036917;28;20190;-79
2021/03/01 08:25:48;;;;;;;21.13;16.30;;;;;;;;;;5037165;28;20207;-80
2021/03/01 08:28:18;;;;;;;22.73;16.30;;;;;;;;;;5034192;28;20191;-78
2021/03/01 08:30:48;;;;;;;20.70;15.70;;;;;;;;;;5039035;28;20193;-79
2021/03/01 08:33:15;;;;;;;21.03;15.93;;;;;;;;;;5055228;28;20179;-78
2021/03/01 08:35:41;;;;;;;23.77;16.17;;;;;;;;;;5056335;28;20203;-79
2021/03/01 08:38:08;;;;;;;21.80;16.63;;;;;;;;;;5056287;28;20205;-78
2021/03/01 08:40:34;;;;;;;20.10;15.33;;;;;;;;;;5054689;28;20227;-79
2021/03/01 08:43:09;;;;;;;20.67;15.23;;;;;;;;;;5056607;28;20597;-79
2021/03/01 08:45:45;;;;;;;20.93;16.53;;;;;;;;;;5055570;28;20270;-79
2021/03/01 08:48:18;;;;;;;20.33;17.40;;;;;;;;;;5049461;28;20183;-79
2021/03/01 08:50:45;;;;;;;20.67;16.73;;;;;;;;;;5053502;28;20207;-80
2021/03/01 08:53:12;;;;;;;19.43;15.13;;;;;;;;;;5060790;28;20186;-79
2021/03/01 08:55:39;;;;;;;21.70;16.90;;;;;;;;;;5060071;28;20254;-79
2021/03/01 08:58:12;;;;;;;22.17;15.90;;;;;;;;;;5060588;28;20188;-79
2021/03/01 09:00:48;;;;;;;23.30;16.30;;;;;;;;;;5060142;28;20209;-79
2021/03/01 09:03:16;;;;;;;20.10;16.50;;;;;;;;;;5060406;28;20176;-79
2021/03/01 09:05:43;;;;;;;21.10;16.77;;;;;;;;;;5039024;28;20705;-80
2021/03/01 09:08:12;;;;;;;21.37;16.30;;;;;;;;;;5053759;28;20547;-79
2021/03/01 09:10:40;;;;;;;21.53;16.33;;;;;;;;;;5041847;28;20641;-79
2021/03/01 09:13:08;;;;;;;22.53;16.60;;;;;;;;;;5040667;28;20216;-79
2021/03/01 09:15:34;;;;;;;21.27;16.27;;;;;;;;;;5059501;28;20232;-79
2021/03/01 09:18:00;;;;;;;23.67;17.37;;;;;;;;;;5059933;28;20653;-80
2021/03/01 09:20:27;;;;;;;22.20;17.37;;;;;;;;;;5046415;28;20223;-80
2021/03/01 09:22:53;;;;;;;21.03;16.63;;;;;;;;;;5050087;28;20187;-79
2021/03/01 09:25:32;;;;;;;23.83;16.50;;;;;;;;;;5046309;28;20212;-79
2021/03/01 09:27:58;;;;;;;20.20;16.07;;;;;;;;;;5060390;28;20266;-78
2021/03/01 09:30:25;;;;;;;22.57;16.13;;;;;;;;;;5060429;28;20676;-79
2021/03/01 09:32:54;;;;;;;20.23;16.03;;;;;;;;;;5060518;28;20181;-80
2021/03/01 09:35:21;;;;;;;24.53;16.63;;;;;;;;;;5060404;28;20567;-80
2021/03/01 09:37:48;;;;;;;22.03;16.97;;;;;;;;;;5057652;28;20187;-79
2021/03/01 09:40:20;;;;;;;26.40;17.50;;;;;;;;;;5043320;28;20197;-79
2021/03/01 09:42:47;;;;;;;20.87;17.10;;;;;;;;;;5058101;28;20220;-79
2021/03/01 09:45:14;;;;;;;21.67;17.27;;;;;;;;;;5046169;28;20249;-79
2021/03/01 09:47:41;;;;;;;19.57;16.10;;;;;;;;;;5056308;28;20707;-80
2021/03/01 09:50:08;;;;;;;21.73;17.10;;;;;;;;;;5047204;28;20201;-79
2021/03/01 09:52:34;;;;;;;21.30;17.10;;;;;;;;;;5053722;28;20268;-80
2021/03/01 09:55:00;;;;;;;20.00;15.40;;;;;;;;;;5045569;28;20201;-79
2021/03/01 09:57:30;;;;;;;17.93;14.93;;;;;;;;;;5051085;28;20182;-80
2021/03/01 09:59:56;;;;;;;18.57;15.63;;;;;;;;;;5044476;28;20540;-79
2021/03/01 10:02:26;;;;;;;20.63;15.77;;;;;;;;;;5040214;28;20182;-80
2021/03/01 10:05:08;;;;;;;19.87;15.73;;;;;;;;;;5052839;28;20201;-80
2021/03/01 10:07:34;;;;;;;19.90;14.47;;;;;;;;;;5058920;28;20170;-79
2021/03/01 10:10:11;;;;;;;17.60;14.10;;;;;;;;;;5056278;28;20174;-79
2021/03/01 10:12:47;;;;;;;17.93;14.60;;;;;;;;;;5047064;28;20586;-79
2021/03/01 10:15:13;;;;;;;17.70;14.63;;;;;;;;;;5038306;28;20668;-79
2021/03/01 10:17:40;;;;;;;18.33;14.30;;;;;;;;;;5047398;28;20236;-80
2021/03/01 10:20:14;;;;;;;17.03;13.90;;;;;;;;;;5048244;28;20194;-80
2021/03/01 10:23:04;;;;;;;18.33;14.23;;;;;;;;;;5059361;28;20189;-80
2021/03/01 10:25:37;;;;;;;15.57;13.10;;;;;;;;;;5057734;28;20552;-80
2021/03/01 10:28:07;;;;;;;18.13;13.37;;;;;;;;;;5046175;28;20183;-80
2021/03/01 10:30:34;;;;;;;16.57;14.13;;;;;;;;;;5054386;28;20180;-80
2021/03/01 10:33:05;;;;;;;21.63;14.90;;;;;;;;;;5038514;28;20178;-80
2021/03/01 10:35:31;;;;;;;15.03;13.27;;;;;;;;;;5047280;28;20233;-81
2021/03/01 10:38:15;;;;;;;15.27;13.63;;;;;;;;;;5038416;28;20216;-80
2021/03/01 10:40:41;;;;;;;19.13;14.80;;;;;;;;;;5034509;28;20198;-81
2021/03/01 10:43:11;;;;;;;18.07;14.23;;;;;;;;;;5048661;28;20686;-80
2021/03/01 10:45:41;;;;;;;14.93;13.30;;;;;;;;;;5056197;28;20268;-80
2021/03/01 10:48:07;;;;;;;19.60;14.40;;;;;;;;;;5052975;28;20622;-80
2021/03/01 10:50:33;;;;;;;17.73;13.50;;;;;;;;;;5053389;28;20177;-80
2021/03/01 10:52:59;;;;;;;18.77;13.13;;;;;;;;;;5059461;28;20689;-80
2021/03/01 10:55:26;;;;;;;18.83;13.60;;;;;;;;;;5044998;28;20627;-81
2021/03/01 10:57:52;;;;;;;18.13;14.10;;;;;;;;;;5057734;28;20187;-80
2021/03/01 11:00:18;;;;;;;15.73;13.43;;;;;;;;;;5051665;28;20184;-80
2021/03/01 11:02:44;;;;;;;15.07;13.10;;;;;;;;;;5039237;28;20193;-81
2021/03/01 11:05:11;;;;;;;16.53;13.70;;;;;;;;;;5044687;28;20261;-82
2021/03/01 11:07:37;;;;;;;12.43;11.13;;;;;;;;;;5036256;28;20175;-80
2021/03/01 11:10:04;;;;;;;15.37;12.03;;;;;;;;;;5053801;28;20179;-81
2021/03/01 11:12:30;;;;;;;13.20;11.77;;;;;;;;;;5052596;28;20181;-81
2021/03/01 11:14:56;;;;;;;13.70;11.57;;;;;;;;;;5053547;28;20207;-80
2021/03/01 11:17:22;;;;;;;13.03;11.63;;;;;;;;;;5059134;28;20170;-81
2021/03/01 11:19:48;;;;;;;12.20;10.93;;;;;;;;;;5057253;28;20186;-81
2021/03/01 11:22:14;;;;;;;13.10;11.40;;;;;;;;;;5038916;28;20179;-80
2021/03/01 11:24:40;;;;;;;13.07;11.73;;;;;;;;;;5037672;28;20194;-81
2021/03/01 11:27:06;;;;;;;13.70;12.30;;;;;;;;;;5041343;28;20298;-81
2021/03/01 11:29:33;;;;;;;15.07;12.20;;;;;;;;;;5040585;28;20184;-81
2021/03/01 11:32:00;;;;;;;13.43;11.90;;;;;;;;;;5043793;28;20185;-80
2021/03/01 11:34:26;;;;;;;12.40;11.13;;;;;;;;;;5050592;28;20255;-81
2021/03/01 11:36:52;;;;;;;15.33;11.57;;;;;;;;;;5059775;28;20597;-81
2021/03/01 11:39:19;;;;;;;13.43;11.33;;;;;;;;;;5057522;28;20242;-81
2021/03/01 11:41:45;;;;;;;13.23;11.83;;;;;;;;;;5057879;28;20188;-81
2021/03/01 11:44:11;;;;;;;15.47;12.60;;;;;;;;;;5058611;28;20216;-82
2021/03/01 11:46:37;;;;;;;14.50;13.00;;;;;;;;;;5059292;28;20261;-81
2021/03/01 11:49:03;;;;;;;13.80;12.40;;;;;;;;;;5060131;28;20184;-81
2021/03/01 11:51:29;;;;;;;12.27;11.07;;;;;;;;;;5059903;28;20188;-81
2021/03/01 11:53:56;;;;;;;13.83;12.33;;;;;;;;;;5058953;28;20185;-81
2021/03/01 11:56:22;;;;;;;14.20;12.70;;;;;;;;;;5058650;28;20177;-81
2021/03/01 11:58:48;;;;;;;18.80;12.80;;;;;;;;;;5058600;28;20670;-80
2021/03/01 12:01:14;;;;;;;14.03;12.50;;;;;;;;;;5057428;28;20247;-81
2021/03/01 12:03:40;;;;;;;15.63;12.80;;;;;;;;;;5058644;28;20186;-81
2021/03/01 12:06:07;;;;;;;13.73;12.33;;;;;;;;;;5059731;28;20229;-80
2021/03/01 12:08:34;;;;;;;14.83;12.17;;;;;;;;;;5055184;28;20652;-80
2021/03/01 12:11:00;;;;;;;14.63;13.07;;;;;;;;;;5047767;28;20180;-81
2021/03/01 12:13:26;;;;;;;14.37;12.57;;;;;;;;;;5055416;28;20180;-81
2021/03/01 12:15:53;;;;;;;14.13;12.57;;;;;;;;;;5058921;28;20250;-81
2021/03/01 12:18:19;;;;;;;14.43;12.23;;;;;;;;;;5059168;28;20180;-82
2021/03/01 12:20:45;;;;;;;13.20;11.73;;;;;;;;;;5057602;28;20666;-82
2021/03/01 12:23:11;;;;;;;15.00;12.10;;;;;;;;;;5040647;28;20236;-82
2021/03/01 12:25:37;;;;;;;13.27;11.83;;;;;;;;;;5058454;28;20285;-81
2021/03/01 12:28:03;;;;;;;13.90;12.20;;;;;;;;;;5062545;28;20578;-81
2021/03/01 12:30:30;;;;;;;17.77;12.90;;;;;;;;;;5054764;28;20567;-81
2021/03/01 12:32:56;;;;;;;18.40;13.37;;;;;;;;;;5043336;28;20180;-81
2021/03/01 12:35:22;;;;;;;14.07;11.93;;;;;;;;;;5041987;28;20217;-81
2021/03/01 12:37:48;;;;;;;13.87;12.47;;;;;;;;;;5043541;28;20186;-81
2021/03/01 12:40:15;;;;;;;13.90;12.00;;;;;;;;;;5044244;28;20177;-81
2021/03/01 12:42:41;;;;;;;14.90;13.43;;;;;;;;;;5052251;28;20695;-81
2021/03/01 12:45:07;;;;;;;15.63;12.77;;;;;;;;;;5041167;28;20698;-82
2021/03/01 12:47:34;;;;;;;12.47;11.07;;;;;;;;;;5043738;28;20616;-82
2021/03/01 12:50:00;;;;;;;16.23;12.83;;;;;;;;;;5051204;28;20532;-81
2021/03/01 12:52:26;;;;;;;13.47;12.17;;;;;;;;;;5050742;28;20180;-81
2021/03/01 12:54:52;;;;;;;14.00;11.67;;;;;;;;;;5044042;28;20249;-82
2021/03/01 12:57:18;;;;;;;13.67;12.27;;;;;;;;;;5048197;28;20260;-82
2021/03/01 12:59:44;;;;;;;15.33;12.00;;;;;;;;;;5044360;28;20187;-81
2021/03/01 13:02:12;;;;;;;13.93;12.30;;;;;;;;;;5045934;28;20179;-81
2021/03/01 13:04:38;;;;;;;14.77;12.37;;;;;;;;;;5065649;28;20217;-81
2021/03/01 13:07:05;;;;;;;14.97;11.87;;;;;;;;;;5071946;28;20277;-81
2021/03/01 13:09:31;;;;;;;18.87;13.13;;;;;;;;;;5063726;28;20168;-82
2021/03/01 13:11:57;;;;;;;14.07;12.17;;;;;;;;;;5062961;28;20176;-81
2021/03/01 13:14:23;;;;;;;14.10;12.27;;;;;;;;;;5034131;28;20229;-81
2021/03/01 13:16:49;;;;;;;13.27;11.63;;;;;;;;;;5048474;28;20548;-81
2021/03/01 13:19:15;;;;;;;18.93;12.73;;;;;;;;;;5064631;28;20520;-82
2021/03/01 13:21:43;;;;;;;16.77;12.97;;;;;;;;;;5055592;28;20186;-82
2021/03/01 13:24:09;;;;;;;14.07;12.57;;;;;;;;;;5048788;28;20181;-82
2021/03/01 13:26:36;;;;;;;79.13;35.20;;;;;;;;;;5055321;28;20274;-81
2021/03/01 13:29:04;;;;;;;16.30;13.13;;;;;;;;;;5046361;28;20255;-82
2021/03/01 13:31:30;;;;;;;12.30;11.10;;;;;;;;;;5045646;28;20710;-82
2021/03/01 13:33:56;;;;;;;14.90;11.70;;;;;;;;;;5044100;28;20205;-82
2021/03/01 13:36:24;;;;;;;13.40;11.03;;;;;;;;;;5043074;28;20667;-83
2021/03/01 13:38:51;;;;;;;13.93;11.27;;;;;;;;;;5046370;28;20182;-83
2021/03/01 13:41:17;;;;;;;13.63;12.07;;;;;;;;;;5044494;28;20201;-83
2021/03/01 13:43:43;;;;;;;17.53;12.57;;;;;;;;;;5042522;28;20183;-82
2021/03/01 13:46:09;;;;;;;13.53;11.40;;;;;;;;;;5043986;28;20206;-82
2021/03/01 13:48:35;;;;;;;13.07;11.67;;;;;;;;;;5043721;28;20333;-82
2021/03/01 13:51:01;;;;;;;14.33;12.70;;;;;;;;;;5046774;28;20182;-83
2021/03/01 13:53:28;;;;;;;14.53;12.23;;;;;;;;;;5032783;28;20185;-84
2021/03/01 13:55:54;;;;;;;13.43;12.07;;;;;;;;;;5044444;28;20610;-83
2021/03/01 13:58:20;;;;;;;14.93;12.43;;;;;;;;;;5045750;28;20178;-84
2021/03/01 14:00:46;;;;;;;12.93;11.73;;;;;;;;;;5042297;28;20695;-82
2021/03/01 14:03:12;;;;;;;15.70;12.43;;;;;;;;;;5050555;28;20178;-83
2021/03/01 14:05:38;;;;;;;13.57;12.17;;;;;;;;;;5041005;28;20213;-82
2021/03/01 14:08:05;;;;;;;14.27;12.10;;;;;;;;;;5044652;28;20261;-83
2021/03/01 14:10:31;;;;;;;12.97;11.63;;;;;;;;;;5045925;28;21131;-82
2021/03/01 14:12:57;;;;;;;14.77;12.10;;;;;;;;;;5048305;28;20178;-83
2021/03/01 14:15:23;;;;;;;15.40;12.47;;;;;;;;;;5046494;28;20214;-84
2021/03/01 14:17:49;;;;;;;14.40;11.80;;;;;;;;;;5045091;28;20178;-82
2021/03/01 14:20:15;;;;;;;15.90;12.03;;;;;;;;;;5044510;28;20209;-81
2021/03/01 14:22:41;;;;;;;14.27;11.73;;;;;;;;;;5041067;28;20525;-81
2021/03/01 14:25:07;;;;;;;13.67;12.13;;;;;;;;;;5056898;28;20676;-82
2021/03/01 14:27:33;;;;;;;13.00;11.67;;;;;;;;;;5064298;28;20229;-81
2021/03/01 14:30:00;;;;;;;13.57;12.20;;;;;;;;;;5041006;28;20183;-83
2021/03/01 14:32:26;;;;;;;19.00;13.83;;;;;;;;;;5026350;28;20189;-83